createdAt,value
2017-06-20T00:00:53.949Z,99.99
2017-06-20T00:10:53.910Z,99.99
2017-06-20T00:20:53.992Z,99.99
2017-06-20T00:30:53.949Z,99.99
2017-06-20T00:40:53.976Z,99.99
2017-06-20T00:50:53.955Z,99.99
2017-06-20T01:00:53.894Z,99.99
2017-06-20T01:10:53.979Z,99.99
2017-06-20T01:20:53.938Z,99.99
2017-06-20T01:30:53.915Z,99.99
2017-06-20T01:40:53.955Z,99.99
2017-06-20T01:50:53.914Z,99.99
2017-06-20T02:00:53.972Z,99.99
2017-06-20T02:10:53.941Z,99.99
2017-06-20T02:20:53.902Z,99.99
2017-06-20T02:30:53.990Z,99.99
2017-06-20T02:40:53.955Z,99.99
2017-06-20T02:50:53.995Z,99.99
2017-06-20T03:00:53.942Z,99.99
2017-06-20T03:10:53.924Z,99.99
2017-06-20T03:20:53.979Z,99.99
2017-06-20T03:30:53.950Z,99.99
2017-06-20T03:40:54.014Z,99.99
2017-06-20T03:50:53.969Z,99.99
2017-06-20T04:00:53.924Z,99.99
2017-06-20T04:10:54.011Z,99.99
2017-06-20T04:20:53.940Z,99.99
2017-06-20T04:30:53.912Z,99.99
2017-06-20T04:40:53.987Z,99.99
2017-06-20T04:50:53.951Z,99.99
2017-06-20T05:00:54.012Z,99.99
2017-06-20T05:10:53.972Z,99.99
2017-06-20T05:20:53.983Z,99.99
2017-06-20T05:30:53.919Z,99.99
2017-06-20T05:40:53.982Z,99.99
2017-06-20T05:50:54.010Z,92.98
2017-06-20T06:00:54.011Z,74.32
2017-06-20T06:10:53.973Z,65.75
2017-06-20T06:20:54.096Z,59.15
2017-06-20T06:30:54.002Z,57.11
2017-06-20T06:40:54.307Z,52.5
2017-06-20T06:50:54.040Z,52.59
2017-06-20T07:00:53.969Z,46.1
2017-06-20T07:10:53.940Z,45.25
2017-06-20T07:20:53.999Z,45.41
2017-06-20T07:30:53.951Z,40.96
2017-06-20T07:40:54.049Z,40.74
2017-06-20T07:50:53.938Z,42.93
2017-06-20T08:00:53.953Z,38.75
2017-06-20T08:10:53.943Z,37.7
2017-06-20T08:20:53.972Z,38.19
2017-06-20T08:30:53.949Z,41.59
2017-06-20T08:40:53.977Z,37.88
2017-06-20T08:50:53.971Z,36.39
2017-06-20T09:00:54.021Z,34.84
2017-06-20T09:10:53.971Z,36.61
2017-06-20T09:20:53.956Z,46.37
2017-06-20T09:30:53.994Z,50.19
2017-06-20T09:40:53.967Z,55.24
2017-06-20T09:50:53.966Z,54.28
2017-06-20T10:00:53.967Z,59.69
2017-06-20T10:10:53.983Z,55.57
2017-06-20T10:20:54.011Z,58.33
2017-06-20T10:30:53.986Z,57.62
2017-06-20T10:40:53.993Z,57.38
2017-06-20T10:50:53.995Z,58.13
2017-06-20T11:00:54.008Z,53.25
2017-06-20T11:10:54.113Z,54.54
2017-06-20T11:20:54.017Z,54.01
2017-06-20T11:30:54.050Z,55.57
2017-06-20T11:40:54.005Z,53.42
2017-06-20T11:50:53.994Z,51.32
2017-06-20T12:00:54.049Z,50.63
2017-06-20T12:10:54.094Z,51.51
2017-06-20T12:20:54.011Z,53.01
2017-06-20T12:30:54.030Z,53.67
2017-06-20T12:40:54.062Z,55.6
2017-06-20T12:50:54.070Z,52.37
2017-06-20T13:00:54.100Z,52.67
2017-06-20T13:10:54.074Z,51.78
2017-06-20T13:20:54.138Z,52.1
2017-06-20T13:30:54.075Z,55.11
2017-06-20T13:40:54.159Z,55.87
2017-06-20T13:50:54.091Z,54.11
2017-06-20T14:00:54.076Z,55.94
2017-06-20T14:10:54.125Z,54.44
2017-06-20T14:20:54.123Z,56.47
2017-06-20T14:30:54.157Z,55.08
2017-06-20T14:40:54.106Z,54.44
2017-06-20T14:50:54.180Z,52.61
2017-06-20T15:00:54.155Z,49.32
2017-06-20T15:10:54.135Z,49.32
2017-06-20T15:20:54.187Z,52.54
2017-06-20T15:30:54.128Z,54.79
2017-06-20T15:40:54.176Z,54.49
2017-06-20T15:50:54.224Z,54.66
2017-06-20T16:00:54.077Z,58.14
2017-06-20T16:10:54.105Z,61.43
2017-06-20T16:20:54.415Z,60.95
2017-06-20T16:30:54.232Z,60.98
2017-06-20T16:40:54.129Z,61.93
2017-06-20T16:50:54.099Z,63.06
2017-06-20T17:00:54.122Z,64
2017-06-20T17:10:55.130Z,62.74
2017-06-20T17:20:54.122Z,63.87
2017-06-20T17:30:54.110Z,64.14
2017-06-20T17:40:54.112Z,64.98
2017-06-20T17:50:54.126Z,66.99
2017-06-20T18:00:54.125Z,67.14
2017-06-20T18:10:54.132Z,68.76
2017-06-20T18:20:54.122Z,69.08
2017-06-20T18:30:54.279Z,71.47
2017-06-20T18:40:54.154Z,71.47
2017-06-20T18:50:54.212Z,72.17
2017-06-20T19:00:54.257Z,74.01
2017-06-20T19:10:54.317Z,75.87
2017-06-20T19:20:54.148Z,77.76
2017-06-20T19:30:54.748Z,77.86
2017-06-20T19:40:54.160Z,77.73
2017-06-20T19:50:54.157Z,78.91
2017-06-20T20:00:54.189Z,79.06
2017-06-20T20:10:54.182Z,79.74
2017-06-20T20:20:54.413Z,81.14
2017-06-20T20:30:54.209Z,81.35
2017-06-20T20:40:54.286Z,82.12
2017-06-20T20:50:54.233Z,83.33
2017-06-20T21:00:54.164Z,84.34
2017-06-20T21:10:54.253Z,85.27
2017-06-20T21:20:54.205Z,87.57
2017-06-20T21:30:54.195Z,88.3
2017-06-20T21:40:54.217Z,89.98
2017-06-20T21:50:54.211Z,91.04
2017-06-20T22:00:54.369Z,92.53
2017-06-20T22:10:54.237Z,93.59
2017-06-20T22:20:54.176Z,94.31
2017-06-20T22:30:54.413Z,96.22
2017-06-20T22:40:54.210Z,96.7
2017-06-20T22:50:54.252Z,98.57
2017-06-20T23:00:54.217Z,99.05
2017-06-20T23:10:54.150Z,99.39
2017-06-20T23:20:54.232Z,99.19
2017-06-20T23:30:54.220Z,99.99
2017-06-20T23:40:54.336Z,99.99
2017-06-20T23:50:54.409Z,99.99
